createdAt,value
2022-10-26T00:01:14.319Z,73.40
2022-10-26T00:03:44.668Z,73.40
2022-10-26T00:06:14.831Z,73.50
2022-10-26T00:08:43.413Z,73.40
2022-10-26T00:11:12.997Z,73.40
2022-10-26T00:13:43.237Z,73.50
2022-10-26T00:16:13.050Z,73.50
2022-10-26T00:18:41.682Z,73.50
2022-10-26T00:21:11.586Z,73.50
2022-10-26T00:23:40.153Z,73.50
2022-10-26T00:26:09.090Z,73.40
2022-10-26T00:28:37.717Z,73.20
2022-10-26T00:31:10.620Z,73.00
2022-10-26T00:33:38.990Z,73.00
2022-10-26T00:36:09.343Z,73.00
2022-10-26T00:38:37.706Z,72.90
2022-10-26T00:41:06.167Z,72.90
2022-10-26T00:43:40.514Z,72.90
2022-10-26T00:46:14.902Z,72.80
2022-10-26T00:48:47.006Z,72.90
2022-10-26T00:51:21.781Z,73.00
2022-10-26T00:53:50.903Z,73.00
2022-10-26T00:56:19.721Z,73.00
2022-10-26T00:58:48.761Z,73.00
2022-10-26T01:01:18.432Z,72.80
2022-10-26T01:03:47.964Z,72.60
2022-10-26T01:06:17.108Z,72.60
2022-10-26T01:08:45.747Z,72.70
2022-10-26T01:11:14.473Z,72.80
2022-10-26T01:13:45.267Z,72.80
2022-10-26T01:16:27.137Z,72.90
2022-10-26T01:19:07.297Z,73.00
2022-10-26T01:21:47.766Z,73.00
2022-10-26T01:24:32.267Z,73.00
2022-10-26T01:27:13.502Z,73.00
2022-10-26T01:30:17.272Z,73.10
2022-10-26T01:32:55.391Z,73.20
2022-10-26T01:35:29.212Z,73.10
2022-10-26T01:38:03.041Z,73.00
2022-10-26T01:40:35.491Z,72.90
2022-10-26T01:43:08.625Z,73.00
2022-10-26T01:45:41.311Z,73.00
2022-10-26T01:48:13.946Z,72.90
2022-10-26T01:50:44.173Z,72.90
2022-10-26T01:53:14.644Z,72.90
2022-10-26T01:55:49.536Z,72.90
2022-10-26T01:58:59.382Z,72.90
2022-10-26T02:01:42.540Z,72.90
2022-10-26T02:07:03.704Z,72.90
2022-10-26T02:09:40.595Z,72.90
2022-10-26T02:12:16.035Z,72.90
2022-10-26T02:14:50.607Z,72.90
2022-10-26T02:17:24.934Z,73.00
2022-10-26T02:20:00.658Z,72.90
2022-10-26T02:22:32.945Z,73.00
2022-10-26T02:25:06.447Z,73.00
2022-10-26T02:27:39.098Z,73.00
2022-10-26T02:30:09.074Z,73.70
2022-10-26T02:32:40.093Z,72.90
2022-10-26T02:35:10.709Z,73.10
2022-10-26T02:37:39.762Z,73.10
2022-10-26T02:40:13.229Z,73.20
2022-10-26T02:42:45.105Z,73.20
2022-10-26T02:45:14.450Z,73.20
2022-10-26T02:47:42.739Z,73.20
2022-10-26T02:50:12.706Z,73.00
2022-10-26T02:52:50.189Z,73.10
2022-10-26T02:55:23.139Z,73.10
2022-10-26T02:57:53.883Z,73.10
2022-10-26T03:00:22.267Z,73.10
2022-10-26T03:02:55.256Z,73.20
2022-10-26T03:05:26.949Z,73.30
2022-10-26T03:07:56.516Z,73.40
2022-10-26T03:10:24.839Z,73.20
2022-10-26T03:12:53.444Z,73.30
2022-10-26T03:15:21.817Z,73.30
2022-10-26T03:17:50.255Z,73.20
2022-10-26T03:20:19.199Z,73.20
2022-10-26T03:22:50.123Z,73.20
2022-10-26T03:25:18.528Z,73.20
2022-10-26T03:27:47.094Z,73.30
2022-10-26T03:30:15.774Z,73.40
2022-10-26T03:32:44.058Z,73.40
2022-10-26T03:35:15.125Z,73.50
2022-10-26T03:37:43.314Z,73.50
2022-10-26T03:40:13.858Z,73.50
2022-10-26T03:42:42.325Z,73.40
2022-10-26T03:45:11.593Z,73.30
2022-10-26T03:47:45.776Z,73.30
2022-10-26T03:50:16.019Z,73.30
2022-10-26T03:52:44.235Z,74.00
2022-10-26T03:55:13.881Z,73.40
2022-10-26T03:57:43.111Z,73.40
2022-10-26T04:00:12.960Z,73.50
2022-10-26T04:02:41.137Z,73.60
2022-10-26T04:05:10.846Z,73.60
2022-10-26T04:07:39.085Z,73.60
2022-10-26T04:10:08.166Z,73.60
2022-10-26T04:12:39.618Z,73.70
2022-10-26T04:15:08.805Z,73.70
2022-10-26T04:17:37.010Z,73.70
2022-10-26T04:20:06.920Z,73.80
2022-10-26T04:22:35.200Z,73.80
2022-10-26T04:25:03.393Z,73.70
2022-10-26T04:27:31.567Z,73.60
2022-10-26T04:30:01.144Z,73.50
2022-10-26T04:32:29.390Z,73.50
2022-10-26T04:34:57.623Z,73.50
2022-10-26T04:37:25.813Z,73.60
2022-10-26T04:39:54.061Z,73.70
2022-10-26T04:42:22.259Z,73.70
2022-10-26T04:44:50.459Z,73.80
2022-10-26T04:47:20.095Z,73.70
2022-10-26T04:49:48.315Z,74.00
2022-10-26T04:52:16.497Z,74.00
2022-10-26T04:54:44.682Z,74.10
2022-10-26T04:57:12.865Z,74.20
2022-10-26T04:59:41.030Z,74.30
2022-10-26T05:02:09.407Z,74.40
2022-10-26T05:04:39.024Z,74.50
2022-10-26T05:07:07.503Z,74.50
2022-10-26T05:09:35.694Z,74.50
2022-10-26T05:12:04.015Z,74.60
2022-10-26T05:14:32.257Z,74.60
2022-10-26T05:17:00.499Z,74.50
2022-10-26T05:19:28.789Z,75.30
2022-10-26T05:21:58.436Z,74.50
2022-10-26T05:24:26.608Z,74.40
2022-10-26T05:26:54.790Z,74.40
2022-10-26T05:29:22.965Z,74.30
2022-10-26T05:31:51.214Z,74.30
2022-10-26T05:34:19.437Z,74.10
2022-10-26T05:36:47.613Z,74.00
2022-10-26T05:39:17.183Z,74.00
2022-10-26T05:41:45.399Z,73.90
2022-10-26T05:44:13.591Z,73.70
2022-10-26T05:46:41.845Z,73.70
2022-10-26T05:49:10.101Z,73.60
2022-10-26T05:51:39.656Z,73.70
2022-10-26T05:54:11.559Z,73.70
2022-10-26T05:56:43.946Z,73.80
2022-10-26T05:59:13.790Z,73.90
2022-10-26T06:02:00.539Z,73.90
2022-10-26T06:04:38.617Z,73.90
2022-10-26T06:07:13.018Z,73.90
2022-10-26T06:09:42.245Z,74.00
2022-10-26T06:12:16.836Z,74.00
2022-10-26T06:14:48.152Z,74.10
2022-10-26T06:17:41.335Z,74.10
2022-10-26T06:20:29.087Z,74.10
2022-10-26T06:23:10.643Z,74.00
2022-10-26T06:25:47.044Z,73.90
2022-10-26T06:28:28.352Z,73.80
2022-10-26T06:30:57.155Z,73.80
2022-10-26T06:33:30.719Z,73.80
2022-10-26T06:36:11.891Z,73.80
2022-10-26T06:38:44.371Z,73.90
2022-10-26T06:41:14.901Z,73.80
2022-10-26T06:43:45.178Z,73.90
2022-10-26T06:46:21.958Z,74.00
2022-10-26T06:48:57.449Z,74.10
2022-10-26T06:51:29.046Z,74.20
2022-10-26T06:54:01.746Z,74.10
2022-10-26T06:56:30.443Z,74.30
2022-10-26T06:59:07.979Z,74.30
2022-10-26T07:01:36.302Z,74.40
2022-10-26T07:04:04.566Z,74.30
2022-10-26T07:06:34.441Z,74.40
2022-10-26T07:09:05.097Z,74.40
2022-10-26T07:11:33.313Z,74.40
2022-10-26T07:14:02.888Z,74.50
2022-10-26T07:16:31.165Z,74.50
2022-10-26T07:18:59.389Z,74.40
2022-10-26T07:21:27.585Z,74.40
2022-10-26T07:23:57.049Z,74.40
2022-10-26T07:26:25.685Z,74.40
2022-10-26T07:28:53.915Z,74.50
2022-10-26T07:31:23.504Z,74.40
2022-10-26T07:33:51.679Z,74.50
2022-10-26T07:36:19.831Z,74.40
2022-10-26T07:38:48.009Z,74.40
2022-10-26T07:41:16.242Z,74.30
2022-10-26T07:43:45.317Z,74.40
2022-10-26T07:46:13.621Z,74.40
2022-10-26T07:51:12.670Z,74.40
2022-10-26T07:53:40.903Z,74.40
2022-10-26T07:56:09.773Z,75.00
2022-10-26T07:58:38.139Z,74.20
2022-10-26T08:01:12.471Z,74.10
2022-10-26T08:03:40.847Z,74.10
2022-10-26T08:06:10.673Z,74.10
2022-10-26T08:08:40.645Z,74.10
2022-10-26T08:11:11.583Z,74.10
2022-10-26T08:13:39.805Z,74.30
2022-10-26T08:16:08.663Z,74.30
2022-10-26T08:18:36.889Z,74.10
2022-10-26T08:21:11.198Z,74.00
2022-10-26T08:23:41.998Z,74.00
2022-10-26T08:26:11.957Z,73.90
2022-10-26T08:28:41.084Z,73.90
2022-10-26T08:31:09.403Z,74.00
2022-10-26T08:33:38.145Z,74.00
2022-10-26T08:36:07.496Z,73.80
2022-10-26T08:38:35.681Z,73.90
2022-10-26T08:41:10.651Z,73.60
2022-10-26T08:43:42.128Z,73.50
2022-10-26T08:46:15.193Z,73.50
2022-10-26T08:48:48.709Z,73.50
2022-10-26T08:51:19.914Z,73.30
2022-10-26T08:53:54.277Z,73.70
2022-10-26T08:56:26.503Z,74.00
2022-10-26T08:58:58.351Z,73.60
2022-10-26T09:01:26.518Z,73.60
2022-10-26T09:03:54.860Z,73.70
2022-10-26T09:06:29.967Z,73.30
2022-10-26T09:09:06.873Z,73.20
2022-10-26T09:11:53.786Z,73.30
2022-10-26T09:14:31.038Z,73.10
2022-10-26T09:17:09.450Z,73.10
2022-10-26T09:20:03.722Z,72.80
2022-10-26T09:22:37.940Z,72.70
2022-10-26T09:25:17.413Z,72.70
2022-10-26T09:27:50.992Z,72.50
2022-10-26T09:30:21.934Z,72.50
2022-10-26T09:32:53.529Z,72.40
2022-10-26T09:35:24.890Z,72.30
2022-10-26T09:37:56.428Z,72.30
2022-10-26T09:40:28.997Z,72.50
2022-10-26T09:43:01.452Z,72.40
2022-10-26T09:45:33.769Z,72.50
2022-10-26T09:48:08.761Z,72.70
2022-10-26T09:50:40.212Z,72.90
2022-10-26T09:53:08.395Z,72.70
2022-10-26T09:55:42.603Z,72.50
2022-10-26T09:58:17.821Z,72.30
2022-10-26T10:00:46.518Z,72.20
2022-10-26T10:03:22.085Z,72.20
2022-10-26T10:05:52.127Z,72.30
2022-10-26T10:08:23.262Z,72.40
2022-10-26T10:11:13.239Z,72.40
2022-10-26T10:13:44.649Z,72.50
2022-10-26T10:16:15.333Z,72.70
2022-10-26T10:18:44.009Z,72.70
2022-10-26T10:21:14.235Z,72.70
2022-10-26T10:23:51.969Z,72.70
2022-10-26T10:26:20.488Z,72.80
2022-10-26T10:29:00.182Z,72.90
2022-10-26T10:31:33.580Z,73.10
2022-10-26T10:34:01.775Z,73.30
2022-10-26T10:36:31.807Z,73.20
2022-10-26T10:39:00.979Z,73.10
2022-10-26T10:41:33.242Z,73.10
2022-10-26T10:44:09.038Z,73.20
2022-10-26T10:46:38.747Z,73.10
2022-10-26T10:49:18.593Z,73.00
2022-10-26T10:51:48.276Z,73.00
2022-10-26T10:54:26.170Z,73.00
2022-10-26T10:56:56.692Z,73.00
2022-10-26T10:59:47.189Z,73.00
2022-10-26T11:02:34.684Z,73.20
2022-10-26T11:05:24.893Z,73.20
2022-10-26T11:07:59.658Z,73.20
2022-10-26T11:10:31.485Z,73.20
2022-10-26T11:13:00.655Z,73.30
2022-10-26T11:15:34.031Z,73.30
2022-10-26T11:18:07.699Z,73.20
2022-10-26T11:20:40.774Z,73.30
2022-10-26T11:23:14.106Z,73.50
2022-10-26T11:25:49.721Z,73.50
2022-10-26T11:28:24.251Z,73.50
2022-10-26T11:31:01.334Z,73.50
2022-10-26T11:33:35.521Z,73.50
2022-10-26T11:36:07.107Z,73.60
2022-10-26T11:38:56.760Z,73.70
2022-10-26T11:41:30.898Z,73.80
2022-10-26T11:44:07.130Z,74.70
2022-10-26T11:46:41.061Z,74.10
2022-10-26T11:49:16.971Z,74.20
2022-10-26T11:51:50.561Z,74.20
2022-10-26T11:54:25.146Z,74.20
2022-10-26T11:56:56.166Z,74.50
2022-10-26T11:59:30.703Z,74.50
2022-10-26T12:02:07.227Z,74.40
2022-10-26T12:04:38.519Z,74.20
2022-10-26T12:07:14.331Z,74.10
2022-10-26T12:09:45.333Z,73.90
2022-10-26T12:12:21.246Z,73.70
2022-10-26T12:14:57.485Z,73.50
2022-10-26T12:17:32.077Z,73.20
2022-10-26T12:20:07.388Z,73.10
2022-10-26T12:22:40.056Z,73.10
2022-10-26T12:25:20.269Z,73.10
2022-10-26T12:27:54.364Z,73.00
2022-10-26T12:30:31.054Z,72.70
2022-10-26T12:33:03.885Z,72.60
2022-10-26T12:35:40.841Z,72.60
2022-10-26T12:38:48.876Z,72.60
2022-10-26T12:41:25.089Z,72.40
2022-10-26T12:44:06.144Z,72.20
2022-10-26T12:46:41.178Z,72.10
2022-10-26T12:49:59.684Z,72.00
2022-10-26T12:52:49.218Z,71.90
2022-10-26T12:55:49.212Z,72.00
2022-10-26T12:59:04.877Z,72.10
2022-10-26T13:02:13.767Z,72.20
2022-10-26T13:05:25.350Z,72.10
2022-10-26T13:08:04.489Z,72.10
2022-10-26T13:10:32.713Z,72.30
2022-10-26T13:13:02.394Z,72.10
2022-10-26T13:15:32.406Z,72.10
2022-10-26T13:18:04.010Z,72.10
2022-10-26T13:20:33.183Z,72.10
2022-10-26T13:23:03.377Z,72.10
2022-10-26T13:25:32.633Z,72.20
2022-10-26T13:28:04.393Z,72.30
2022-10-26T13:30:41.213Z,72.30
2022-10-26T13:33:15.743Z,72.40
2022-10-26T13:35:45.322Z,72.10
2022-10-26T13:38:19.574Z,72.00
2022-10-26T13:40:48.119Z,72.00
2022-10-26T13:43:22.491Z,72.20
2022-10-26T13:45:56.133Z,72.30
2022-10-26T13:48:36.706Z,72.40
2022-10-26T13:51:12.094Z,72.40
2022-10-26T13:53:46.592Z,72.50
2022-10-26T13:56:23.450Z,72.60
2022-10-26T13:58:56.550Z,72.70
2022-10-26T14:01:27.057Z,72.60
2022-10-26T14:03:55.555Z,72.60
2022-10-26T14:06:28.908Z,72.60
2022-10-26T14:09:01.401Z,72.60
2022-10-26T14:11:35.254Z,72.70
2022-10-26T14:14:04.096Z,72.60
2022-10-26T14:16:35.456Z,72.50
2022-10-26T14:19:04.388Z,72.60
2022-10-26T14:21:32.602Z,72.60
2022-10-26T14:24:07.651Z,72.80
2022-10-26T14:26:41.204Z,72.80
2022-10-26T14:29:18.632Z,72.80
2022-10-26T14:31:47.018Z,72.90
2022-10-26T14:34:15.370Z,72.90
2022-10-26T14:36:47.226Z,72.80
2022-10-26T14:39:20.871Z,72.80
2022-10-26T14:41:50.648Z,72.70
2022-10-26T14:44:23.230Z,72.70
2022-10-26T14:46:51.771Z,72.60
2022-10-26T14:49:22.703Z,72.60
2022-10-26T14:51:57.186Z,72.60
2022-10-26T14:54:28.744Z,72.60
2022-10-26T14:56:57.490Z,72.50
2022-10-26T14:59:29.032Z,72.50
2022-10-26T15:01:59.632Z,72.60
2022-10-26T15:04:35.062Z,72.60
2022-10-26T15:07:10.154Z,72.60
2022-10-26T15:09:44.827Z,72.70
2022-10-26T15:12:28.501Z,72.60
2022-10-26T15:14:57.560Z,72.80
2022-10-26T15:17:32.037Z,72.70
2022-10-26T15:20:05.180Z,72.80
2022-10-26T15:22:33.983Z,72.90
2022-10-26T15:25:05.657Z,72.90
2022-10-26T15:27:34.920Z,72.90
2022-10-26T15:30:26.763Z,72.80
2022-10-26T15:32:56.262Z,73.00
2022-10-26T15:35:32.351Z,72.80
2022-10-26T15:38:02.160Z,72.90
2022-10-26T15:40:33.094Z,72.90
2022-10-26T15:43:02.492Z,73.10
2022-10-26T15:45:33.160Z,73.20
2022-10-26T15:48:17.675Z,73.20
2022-10-26T15:50:45.855Z,73.20
2022-10-26T15:53:19.202Z,73.20
2022-10-26T15:55:49.090Z,73.20
2022-10-26T15:58:17.737Z,73.20
2022-10-26T16:00:46.021Z,73.20
2022-10-26T16:03:17.087Z,73.30
2022-10-26T16:05:45.549Z,73.30
2022-10-26T16:08:17.974Z,73.40
2022-10-26T16:10:48.770Z,73.30
2022-10-26T16:13:17.149Z,73.50
2022-10-26T16:15:46.070Z,73.50
2022-10-26T16:18:14.390Z,73.60
2022-10-26T16:20:45.855Z,73.60
2022-10-26T16:23:14.189Z,74.30
2022-10-26T16:25:44.513Z,73.50
2022-10-26T16:28:16.281Z,73.70
2022-10-26T16:30:45.240Z,73.70
2022-10-26T16:33:13.786Z,73.70
2022-10-26T16:35:42.087Z,74.40
2022-10-26T16:38:10.288Z,73.70
2022-10-26T16:40:38.669Z,73.80
2022-10-26T16:43:06.848Z,73.80
2022-10-26T16:45:36.411Z,73.70
2022-10-26T16:48:07.002Z,73.70
2022-10-26T16:50:36.440Z,73.70
2022-10-26T16:53:05.188Z,73.70
2022-10-26T16:55:33.609Z,73.80
2022-10-26T16:58:01.808Z,73.90
2022-10-26T17:00:30.017Z,74.00
2022-10-26T17:03:01.728Z,74.00
2022-10-26T17:05:30.127Z,74.10
2022-10-26T17:07:58.306Z,74.10
2022-10-26T17:10:27.970Z,74.20
2022-10-26T17:12:57.940Z,74.30
2022-10-26T17:15:29.012Z,74.40
2022-10-26T17:17:57.649Z,74.30
2022-10-26T17:20:27.329Z,74.30
2022-10-26T17:22:57.406Z,74.30
2022-10-26T17:25:25.655Z,74.20
2022-10-26T17:27:53.837Z,74.20
2022-10-26T17:30:21.995Z,74.40
2022-10-26T17:32:50.293Z,74.40
2022-10-26T17:35:19.987Z,74.60
2022-10-26T17:37:49.857Z,74.60
2022-10-26T17:40:18.402Z,74.80
2022-10-26T17:42:46.699Z,74.90
2022-10-26T17:45:14.875Z,75.10
2022-10-26T17:47:43.099Z,75.20
2022-10-26T17:50:11.381Z,75.20
2022-10-26T17:52:39.574Z,75.30
2022-10-26T17:55:09.884Z,75.50
2022-10-26T17:57:38.062Z,75.80
2022-10-26T18:00:07.210Z,75.80
2022-10-26T18:02:37.584Z,76.00
2022-10-26T18:05:07.603Z,76.00
2022-10-26T18:07:36.413Z,76.20
2022-10-26T18:10:14.012Z,76.30
2022-10-26T18:12:54.570Z,76.60
2022-10-26T18:15:23.924Z,76.60
2022-10-26T18:17:56.743Z,76.60
2022-10-26T18:20:26.658Z,76.70
2022-10-26T18:22:54.856Z,76.60
2022-10-26T18:25:23.046Z,76.60
2022-10-26T18:27:51.247Z,76.50
2022-10-26T18:30:20.928Z,76.50
2022-10-26T18:32:50.887Z,76.60
2022-10-26T18:35:19.849Z,76.70
2022-10-26T18:37:48.321Z,76.70
2022-10-26T18:40:16.921Z,76.70
2022-10-26T18:42:45.106Z,76.70
2022-10-26T18:45:13.292Z,76.70
2022-10-26T18:47:42.853Z,76.80
2022-10-26T18:50:11.314Z,76.90
2022-10-26T18:52:39.463Z,76.90
2022-10-26T18:55:08.843Z,76.90
2022-10-26T18:57:37.045Z,76.60
2022-10-26T19:00:05.887Z,76.40
2022-10-26T19:02:34.064Z,76.40
2022-10-26T19:05:03.643Z,76.40
2022-10-26T19:07:31.835Z,76.40
2022-10-26T19:09:59.992Z,76.40
2022-10-26T19:12:28.227Z,76.20
2022-10-26T19:14:56.401Z,76.20
2022-10-26T19:17:24.640Z,76.30
2022-10-26T19:19:52.806Z,76.30
2022-10-26T19:22:22.369Z,76.40
2022-10-26T19:24:50.530Z,76.50
2022-10-26T19:27:18.776Z,76.30
2022-10-26T19:29:47.047Z,76.40
2022-10-26T19:32:15.525Z,76.60
2022-10-26T19:34:43.746Z,76.60
2022-10-26T19:37:11.905Z,76.60
2022-10-26T19:39:41.828Z,76.70
2022-10-26T19:42:10.018Z,76.90
2022-10-26T19:44:38.199Z,77.00
2022-10-26T19:47:07.727Z,77.30
2022-10-26T19:49:35.904Z,77.20
2022-10-26T19:52:04.099Z,77.00
2022-10-26T19:54:32.267Z,76.70
2022-10-26T19:57:01.830Z,76.50
2022-10-26T19:59:29.990Z,76.40
2022-10-26T20:02:00.374Z,76.40
2022-10-26T20:04:28.590Z,76.40
2022-10-26T20:06:56.784Z,76.50
2022-10-26T20:09:25.020Z,76.30
2022-10-26T20:11:53.171Z,76.30
2022-10-26T20:14:22.751Z,76.40
2022-10-26T20:16:50.926Z,76.70
2022-10-26T20:19:19.112Z,76.80
2022-10-26T20:21:47.654Z,77.20
2022-10-26T20:24:15.841Z,77.20
2022-10-26T20:26:44.003Z,76.60
2022-10-26T20:29:12.202Z,76.30
2022-10-26T20:31:41.782Z,76.70
2022-10-26T20:34:10.028Z,76.90
2022-10-26T20:36:38.194Z,77.10
2022-10-26T20:39:06.974Z,77.10
2022-10-26T20:41:41.553Z,76.80
2022-10-26T20:44:17.966Z,79.40
2022-10-26T20:46:48.350Z,82.00
2022-10-26T20:49:17.030Z,80.20
2022-10-26T20:52:15.296Z,78.70
2022-10-26T20:54:44.005Z,77.30
2022-10-26T20:57:23.694Z,74.70
2022-10-26T20:59:56.381Z,73.20
2022-10-26T21:02:27.786Z,72.70
2022-10-26T21:04:55.958Z,72.40
2022-10-26T21:07:24.173Z,72.20
2022-10-26T21:09:52.416Z,71.70
2022-10-26T21:12:20.711Z,71.70
2022-10-26T21:14:48.885Z,72.00
2022-10-26T21:17:17.209Z,72.30
2022-10-26T21:19:46.761Z,72.30
2022-10-26T21:22:15.780Z,72.50
2022-10-26T21:24:43.953Z,72.60
2022-10-26T21:27:12.110Z,73.00
2022-10-26T21:29:40.450Z,73.20
2022-10-26T21:32:08.678Z,73.10
2022-10-26T21:34:36.821Z,73.30
2022-10-26T21:37:06.397Z,73.60
2022-10-26T21:39:34.572Z,73.50
2022-10-26T21:42:02.990Z,73.50
2022-10-26T21:44:40.849Z,73.40
2022-10-26T21:47:10.137Z,73.30
2022-10-26T21:49:38.438Z,73.20
2022-10-26T21:52:08.866Z,73.40
2022-10-26T21:54:37.185Z,73.20
2022-10-26T21:57:05.571Z,73.20
2022-10-26T21:59:33.815Z,73.20
2022-10-26T22:02:02.159Z,73.30
2022-10-26T22:04:30.746Z,73.40
2022-10-26T22:06:58.908Z,73.50
2022-10-26T22:09:28.482Z,73.60
2022-10-26T22:11:56.658Z,73.50
2022-10-26T22:14:24.934Z,73.50
2022-10-26T22:16:53.105Z,73.50
2022-10-26T22:19:21.297Z,73.50
2022-10-26T22:21:49.472Z,73.90
2022-10-26T22:24:17.729Z,74.20
2022-10-26T22:26:47.309Z,74.50
2022-10-26T22:29:15.450Z,74.20
2022-10-26T22:31:43.613Z,74.10
2022-10-26T22:34:16.137Z,74.30
2022-10-26T22:36:44.775Z,74.50
2022-10-26T22:39:12.946Z,74.60
2022-10-26T22:41:41.238Z,74.60
2022-10-26T22:44:10.983Z,74.40
2022-10-26T22:46:39.231Z,74.30
2022-10-26T22:49:07.428Z,74.00
2022-10-26T22:51:36.614Z,73.70
2022-10-26T22:54:05.960Z,73.80
2022-10-26T22:56:35.998Z,73.70
2022-10-26T22:59:05.212Z,73.90
2022-10-26T23:01:38.355Z,74.00
2022-10-26T23:04:06.841Z,74.40
2022-10-26T23:06:35.043Z,75.00
2022-10-26T23:09:03.293Z,74.30
2022-10-26T23:11:31.631Z,74.30
2022-10-26T23:14:01.401Z,74.40
2022-10-26T23:16:31.109Z,74.40
2022-10-26T23:19:00.977Z,74.50
2022-10-26T23:21:30.007Z,74.50
2022-10-26T23:23:58.537Z,74.70
2022-10-26T23:26:26.812Z,74.90
2022-10-26T23:28:54.986Z,75.20
2022-10-26T23:31:26.584Z,75.40
2022-10-26T23:33:55.806Z,75.40
2022-10-26T23:36:25.766Z,75.50
2022-10-26T23:38:53.969Z,75.50
2022-10-26T23:41:22.158Z,75.40
2022-10-26T23:43:50.311Z,75.30
2022-10-26T23:46:18.547Z,75.60
2022-10-26T23:48:46.801Z,75.70
2022-10-26T23:51:14.961Z,75.60
2022-10-26T23:53:44.490Z,75.70
2022-10-26T23:56:12.636Z,75.70
2022-10-26T23:58:40.813Z,75.80
